Time;durP1;ratioP1;P1;durP2;ratioP2;P2;SDS_P1;SDS_P2;PMS_P1;PMS_P2;Temp;Humidity;BMP_temperature;BMP_pressure;BME280_temperature;BME280_humidity;BME280_pressure;Samples;Min_cycle;Max_cycle;Signal;HPM_P1;HPM_P2
2021/12/22 00:01:59;;;;;;;178.35;23.60;;;1.70;99.90;;;0.11;100.00;101895.00;4950981;28;20132;-82
2021/12/22 00:04:30;;;;;;;192.20;24.65;;;1.80;99.90;;;0.11;100.00;101894.09;4935152;28;20053;-81
2021/12/22 00:07:05;;;;;;;144.10;22.35;;;1.80;99.90;;;0.15;100.00;101901.06;4951225;28;20049;-82
2021/12/22 00:09:31;;;;;;;153.05;23.63;;;1.80;99.90;;;0.17;100.00;101899.38;5002838;28;20043;-81
2021/12/22 00:11:57;;;;;;;151.45;22.17;;;1.80;99.90;;;0.17;100.00;101900.28;4981150;28;20041;-80
2021/12/22 00:14:30;;;;;;;142.38;22.63;;;1.80;99.90;;;0.22;100.00;101899.44;4957419;28;20026;-81
2021/12/22 00:16:57;;;;;;;133.07;22.35;;;1.80;99.90;;;0.21;100.00;101901.19;4952570;28;20067;-81
2021/12/22 00:19:23;;;;;;;131.30;22.08;;;1.90;99.90;;;0.23;100.00;101906.38;4968267;28;20030;-81
2021/12/22 00:21:50;;;;;;;125.30;20.73;;;1.90;99.90;;;0.17;100.00;101899.38;4929556;28;20033;-81
2021/12/22 00:24:25;;;;;;;119.03;21.45;;;1.90;99.90;;;0.17;100.00;101896.78;4952203;28;20083;-80
2021/12/22 00:26:53;;;;;;;;;;;1.90;99.90;;;0.14;100.00;101899.34;4896613;28;20060;-81
2021/12/22 00:29:28;;;;;;;98.13;19.98;;;1.80;99.90;;;0.11;100.00;101897.59;4897716;28;19905;-81
2021/12/22 00:32:15;;;;;;;100.40;20.40;;;1.80;99.90;;;0.10;100.00;101892.38;4919940;28;20048;-81
2021/12/22 00:34:54;;;;;;;95.30;18.38;;;1.80;99.90;;;0.10;100.00;101888.06;4886035;28;20038;-82
2021/12/22 00:37:34;;;;;;;83.88;18.50;;;1.80;99.90;;;0.12;100.00;101883.78;4949934;28;20585;-81
2021/12/22 00:40:11;;;;;;;90.07;20.20;;;1.80;99.90;;;0.13;100.00;101888.13;4900094;28;20460;-81
2021/12/22 00:42:37;;;;;;;86.20;18.88;;;1.80;99.90;;;0.10;100.00;101893.25;4957028;28;20072;-80
2021/12/22 00:45:15;;;;;;;86.97;19.90;;;1.80;99.90;;;0.12;100.00;101886.38;4944546;28;20446;-80
2021/12/22 00:47:41;;;;;;;79.03;19.35;;;1.80;99.90;;;0.10;100.00;101889.78;4970185;28;20048;-81
2021/12/22 00:50:17;;;;;;;75.60;19.35;;;1.80;99.90;;;0.08;100.00;101888.91;4909279;28;20037;-81
2021/12/22 00:52:43;;;;;;;75.03;19.15;;;1.70;99.90;;;0.04;100.00;101887.97;4919143;28;20061;-81
2021/12/22 00:55:09;;;;;;;82.30;19.70;;;;;;;0.00;100.00;101888.78;4954514;28;20125;-81
2021/12/22 00:57:49;;;;;;;77.80;20.50;;;1.70;99.90;;;0.00;100.00;101881.03;4950385;28;20086;-82
2021/12/22 01:00:26;;;;;;;73.20;20.08;;;1.70;99.90;;;-0.06;100.00;101880.94;4917638;28;20055;-81
2021/12/22 01:02:52;;;;;;;69.07;19.33;;;1.70;99.90;;;-0.05;100.00;101874.88;4979161;28;21287;-80
2021/12/22 01:05:28;;;;;;;74.15;19.55;;;1.70;99.90;;;-0.06;100.00;101868.84;4978255;28;20154;-81
2021/12/22 01:07:55;;;;;;;74.40;19.73;;;;;;;-0.03;100.00;101875.78;4933585;28;20162;-81
2021/12/22 01:10:45;;;;;;;72.32;20.00;;;1.70;99.90;;;0.00;100.00;101888.78;4956817;28;20087;-81
2021/12/22 01:13:14;;;;;;;72.53;19.30;;;1.70;99.90;;;-0.03;100.00;101878.38;4944158;28;20386;-80
2021/12/22 01:15:40;;;;;;;75.85;19.42;;;1.70;99.90;;;-0.04;100.00;101880.09;4940779;28;20030;-81
2021/12/22 01:18:28;;;;;;;65.90;19.55;;;1.70;99.90;;;-0.01;100.00;101890.50;4946030;28;20545;-80
2021/12/22 01:27:08;;;;;;;71.45;19.50;;;1.60;99.90;;;-0.10;100.00;101874.81;4983818;28;20056;-81
2021/12/22 01:29:43;;;;;;;75.43;19.50;;;1.60;99.90;;;-0.08;100.00;101880.03;4977491;28;20037;-81
2021/12/22 01:32:11;;;;;;;72.05;19.15;;;1.70;99.90;;;-0.06;100.00;101881.78;4993920;28;20033;-81
2021/12/22 01:34:37;;;;;;;65.75;19.02;;;1.60;99.90;;;0.00;100.00;101891.38;4983363;28;20124;-81
2021/12/22 01:37:28;;;;;;;76.35;20.23;;;1.60;99.90;;;-0.02;100.00;101878.41;4944648;28;20109;-81
2021/12/22 01:39:54;;;;;;;73.80;20.20;;;1.70;99.90;;;-0.02;100.00;101883.59;4964472;28;20038;-81
2021/12/22 01:42:20;;;;;;;77.35;19.88;;;1.70;99.90;;;0.00;100.00;101881.03;4941938;28;20568;-80
2021/12/22 01:50:50;;;;;;;77.82;19.60;;;1.70;99.90;;;0.01;100.00;101876.72;4950757;28;20103;-80
2021/12/22 01:53:24;;;;;;;77.65;19.23;;;1.70;99.90;;;-0.02;100.00;101883.59;4944822;28;20092;-80
2021/12/22 01:56:28;;;;;;;73.95;19.42;;;1.70;99.90;;;-0.01;100.00;101874.09;4958065;28;20038;-80
2021/12/22 01:59:06;;;;;;;81.65;20.05;;;1.70;99.90;;;-0.06;100.00;101867.97;4999829;28;20551;-80
2021/12/22 02:01:33;;;;;;;76.55;20.20;;;1.70;99.90;;;-0.04;100.00;101872.31;4961893;28;20247;-81
2021/12/22 02:04:10;;;;;;;77.68;21.08;;;1.70;99.90;;;-0.05;100.00;101875.75;4956853;28;20415;-81
2021/12/22 02:06:48;;;;;;;84.68;20.15;;;1.70;99.90;;;-0.01;100.00;101869.78;4948305;28;20029;-81
2021/12/22 02:09:25;;;;;;;77.20;19.38;;;1.70;99.90;;;0.05;100.00;101884.53;4977515;28;20033;-81
2021/12/22 02:11:51;;;;;;;74.63;19.02;;;1.70;99.90;;;0.07;100.00;101871.63;4946437;28;20048;-80
2021/12/22 02:14:17;;;;;;;68.63;18.67;;;1.70;99.90;;;0.09;100.00;101873.38;4938881;28;20477;-80
2021/12/22 02:16:43;;;;;;;68.38;19.08;;;1.70;99.90;;;0.12;100.00;101888.97;4971850;28;20084;-79
2021/12/22 02:19:10;;;;;;;70.70;18.10;;;1.70;99.90;;;0.02;100.00;101871.53;4936995;28;20041;-80
2021/12/22 02:21:47;;;;;;;79.72;20.38;;;1.70;99.90;;;0.04;100.00;101872.44;4934447;28;20039;-80
2021/12/22 02:24:14;;;;;;;72.13;19.13;;;1.70;99.90;;;0.03;100.00;101875.88;4946971;28;20044;-81
2021/12/22 02:27:00;;;;;;;64.38;18.23;;;1.70;99.90;;;0.05;100.00;101873.31;4923656;28;20492;-81
2021/12/22 02:29:35;;;;;;;75.80;19.15;;;1.70;99.90;;;0.01;100.00;101874.13;4954051;28;20068;-80
2021/12/22 02:34:41;;;;;;;69.72;19.25;;;1.70;99.90;;;-0.07;100.00;101861.91;4929383;28;20033;-80
2021/12/22 02:37:14;;;;;;;65.13;18.08;;;1.60;99.90;;;-0.17;100.00;101859.16;4944709;28;20057;-80
2021/12/22 02:39:57;;;;;;;65.93;18.45;;;1.60;99.90;;;-0.22;100.00;101852.22;4923028;28;21731;-80
2021/12/22 02:42:34;;;;;;;63.58;17.52;;;1.50;99.90;;;-0.22;100.00;101859.06;4934933;28;20033;-80
2021/12/22 02:45:17;;;;;;;67.95;17.45;;;1.50;99.90;;;-0.22;100.00;101849.63;4898621;28;20139;-80
2021/12/22 02:47:49;;;;;;;65.80;19.15;;;1.50;99.90;;;-0.21;100.00;101853.94;4917541;28;20071;-80
2021/12/22 02:50:18;;;;;;;66.03;18.88;;;1.50;99.90;;;-0.26;100.00;101849.53;4908410;28;21021;-80
2021/12/22 02:53:06;;;;;;;63.53;18.60;;;2.50;99.90;;;-0.27;100.00;101845.22;4926136;28;20108;-80
2021/12/22 02:56:02;;;;;;;67.90;18.30;;;1.50;99.90;;;-0.26;100.00;101850.41;4933057;28;20026;-80
2021/12/22 02:58:42;;;;;;;74.35;18.75;;;1.40;99.90;;;-0.23;100.00;101855.63;4956635;28;20021;-80
2021/12/22 03:04:30;;;;;;;68.55;19.45;;;1.50;99.90;;;-0.26;100.00;101839.16;4944182;28;20885;-81
2021/12/22 03:07:10;;;;;;;68.50;17.75;;;1.50;99.90;;;-0.24;100.00;101851.31;4919202;23;20050;-80
2021/12/22 03:09:44;;;;;;;69.88;18.92;;;;;;;-0.21;100.00;101853.94;4910092;28;20102;-80
2021/12/22 03:12:15;;;;;;;69.03;19.55;;;1.50;99.90;;;-0.13;100.00;101864.44;4964303;28;20037;-80
2021/12/22 03:14:46;;;;;;;70.45;18.42;;;1.50;99.90;;;-0.13;100.00;101860.94;4936236;28;20034;-80
2021/12/22 03:17:12;;;;;;;65.40;18.92;;;1.50;99.90;;;-0.14;100.00;101854.91;4950495;28;20040;-80
2021/12/22 03:19:38;;;;;;;63.67;19.23;;;1.60;99.90;;;-0.09;100.00;101860.16;4935222;28;20041;-79
2021/12/22 03:22:09;;;;;;;66.25;19.00;;;1.60;99.90;;;-0.05;100.00;101859.34;4975602;28;20477;-80
2021/12/22 03:24:44;;;;;;;65.35;18.05;;;1.60;99.90;;;-0.04;100.00;101855.94;4933018;28;20037;-80
2021/12/22 03:27:10;;;;;;;74.82;18.98;;;1.60;99.90;;;-0.05;100.00;101859.34;4909968;28;20038;-80
2021/12/22 03:29:46;;;;;;;67.57;19.90;;;1.60;99.90;;;-0.04;100.00;101858.53;4923317;28;20040;-80
2021/12/22 03:32:13;;;;;;;60.95;18.13;;;1.60;99.90;;;-0.04;100.00;101861.09;4971631;28;20042;-80
2021/12/22 03:34:49;;;;;;;66.75;18.65;;;1.60;99.90;;;-0.05;100.00;101856.75;4927825;28;20671;-81
2021/12/22 03:37:15;;;;;;;60.67;18.48;;;;;;;-0.08;100.00;101852.41;4933784;28;20057;-79
2021/12/22 03:39:41;;;;;;;61.13;17.27;;;1.60;99.90;;;-0.13;100.00;101858.34;4955832;28;20163;-80
2021/12/22 03:42:16;;;;;;;50.17;16.63;;;1.60;99.90;;;-0.17;100.00;101849.69;4946450;28;20029;-80
2021/12/22 03:44:42;;;;;;;51.17;14.85;;;1.50;99.90;;;-0.15;100.00;101860.03;4946738;28;20131;-80
2021/12/22 03:47:08;;;;;;;57.17;15.93;;;1.50;99.90;;;-0.16;100.00;101847.97;4947236;28;20671;-80
2021/12/22 03:49:44;;;;;;;47.30;15.90;;;1.50;99.90;;;-0.15;100.00;101844.50;4957729;28;20532;-80
2021/12/22 03:52:10;;;;;;;44.83;15.27;;;1.50;99.90;;;-0.15;100.00;101842.81;4939959;28;20042;-80
2021/12/22 03:54:36;;;;;;;41.05;14.48;;;1.50;99.90;;;-0.16;100.00;101837.59;4920038;28;20025;-80
2021/12/22 03:57:02;;;;;;;41.35;13.65;;;1.50;99.90;;;-0.15;100.00;101839.34;4902851;28;20036;-80
2021/12/22 03:59:32;;;;;;;35.03;12.98;;;1.50;99.90;;;-0.18;100.00;101836.72;5020653;28;20030;-80
2021/12/22 04:01:59;;;;;;;37.05;13.32;;;1.50;99.90;;;-0.18;100.00;101841.88;4952536;28;20045;-80
2021/12/22 04:04:28;;;;;;;35.03;13.18;;;1.50;99.90;;;-0.19;100.00;101848.78;4903968;28;20077;-81
2021/12/22 04:06:54;;;;;;;36.53;12.73;;;1.50;99.90;;;-0.22;100.00;101836.69;4923588;28;20045;-81
2021/12/22 04:09:27;;;;;;;38.13;13.02;;;1.50;99.90;;;-0.24;100.00;101840.97;4933287;28;21155;-80
2021/12/22 04:11:54;;;;;;;32.65;13.13;;;1.40;99.90;;;-0.33;100.00;101838.19;4964144;28;20038;-80
2021/12/22 04:14:20;;;;;;;36.33;14.25;;;1.40;99.90;;;-0.34;100.00;101836.47;4908309;28;20060;-80
2021/12/22 04:16:46;;;;;;;37.67;12.82;;;;;;;-0.33;100.00;101832.16;4959838;28;20029;-80
2021/12/22 04:19:23;;;;;;;37.55;13.27;;;;;;;-0.31;100.00;101831.34;4958774;28;20049;-80
2021/12/22 04:21:50;;;;;;;30.98;13.35;;;1.40;99.90;;;-0.34;100.00;101822.66;4942475;28;20541;-81
2021/12/22 04:24:24;;;;;;;31.55;13.52;;;1.40;99.90;;;-0.32;100.00;101832.19;4962392;28;20029;-80
2021/12/22 04:26:51;;;;;;;42.95;14.15;;;1.40;99.90;;;-0.31;100.00;101822.72;4934719;23;20050;-81
2021/12/22 04:29:18;;;;;;;38.30;13.07;;;1.40;99.90;;;-0.31;100.00;101820.97;4911301;28;20212;-80
2021/12/22 04:31:50;;;;;;;42.60;14.88;;;1.40;99.90;;;-0.37;100.00;101823.47;4940035;28;20494;-80
2021/12/22 04:34:17;;;;;;;39.90;13.10;;;1.30;99.90;;;-0.37;100.00;101814.84;4893187;28;20034;-80
2021/12/22 04:36:43;;;;;;;36.72;13.60;;;1.30;99.90;;;-0.37;100.00;101807.94;4919765;28;20049;-80
2021/12/22 04:39:10;;;;;;;35.42;12.75;;;1.30;99.90;;;-0.39;100.00;101819.13;4934183;28;20111;-80
2021/12/22 04:41:43;;;;;;;35.78;12.07;;;1.30;99.90;;;-0.41;100.00;101811.34;4902573;28;23123;-80
2021/12/22 04:44:09;;;;;;;38.15;12.82;;;1.30;99.90;;;-0.40;100.00;101807.91;4896489;28;20166;-80
2021/12/22 04:46:36;;;;;;;38.00;12.55;;;;;;;-0.45;100.00;101807.84;4924660;28;20797;-80
2021/12/22 04:49:03;;;;;;;41.33;13.10;;;1.30;99.90;;;-0.45;100.00;101802.66;4933011;28;20422;-80
2021/12/22 04:51:36;;;;;;;38.00;12.55;;;1.30;99.90;;;-0.47;100.00;101808.66;4918226;28;20037;-80
2021/12/22 04:54:17;;;;;;;37.60;12.57;;;1.20;99.90;;;-0.50;100.00;101804.28;4940352;28;20060;-80
2021/12/22 04:56:44;;;;;;;34.28;12.32;;;;;;;-0.57;100.00;101789.50;4904013;28;20034;-81
2021/12/22 04:59:20;;;;;;;38.65;12.82;;;1.20;99.90;;;-0.58;100.00;101807.59;4945288;28;20034;-79
2021/12/22 05:01:46;;;;;;;37.50;12.32;;;1.20;99.90;;;-0.58;100.00;101802.41;4900727;28;20109;-80
2021/12/22 05:04:12;;;;;;;30.58;11.95;;;1.20;99.90;;;-0.58;100.00;101803.31;4919317;28;20139;-80
2021/12/22 05:06:38;;;;;;;37.05;13.00;;;1.20;99.90;;;-0.59;100.00;101798.09;4920349;28;20022;-80
2021/12/22 05:09:13;;;;;;;39.42;12.75;;;1.20;99.90;;;-0.58;100.00;101805.00;4915552;28;20061;-80
2021/12/22 05:11:40;;;;;;;46.70;13.68;;;1.20;99.90;;;-0.57;100.00;101791.25;4886804;28;20038;-80
2021/12/22 05:14:08;;;;;;;40.42;14.23;;;1.20;99.90;;;-0.58;100.00;101790.38;4908523;28;20030;-80
2021/12/22 05:16:45;;;;;;;42.08;13.23;;;1.20;99.90;;;-0.54;100.00;101799.03;4917323;28;20045;-79
2021/12/22 05:19:21;;;;;;;43.40;13.05;;;1.10;99.90;;;-0.57;100.00;101793.84;4914729;28;20064;-80
2021/12/22 05:21:47;;;;;;;41.22;13.63;;;1.20;99.90;;;-0.57;100.00;101793.84;4903503;28;20393;-80
2021/12/22 05:24:13;;;;;;;43.92;13.20;;;1.20;99.90;;;-0.57;100.00;101792.09;4937893;28;20030;-80
2021/12/22 05:26:47;;;;;;;37.03;13.38;;;1.20;99.90;;;-0.59;100.00;101790.34;4922885;28;20038;-80
2021/12/22 05:29:13;;;;;;;34.72;12.70;;;1.20;99.90;;;-0.65;100.00;101794.59;4921462;28;20027;-79
2021/12/22 05:31:39;;;;;;;39.65;13.60;;;1.10;99.90;;;-0.70;100.00;101782.41;4902482;28;20646;-80
2021/12/22 05:34:05;;;;;;;41.47;12.73;;;1.10;99.90;;;-0.69;100.00;101792.78;4922730;28;20057;-80
2021/12/22 05:36:41;;;;;;;41.28;13.38;;;1.10;99.90;;;-0.72;100.00;101790.13;4921483;28;20100;-81
2021/12/22 05:39:07;;;;;;;42.03;13.98;;;1.10;99.90;;;-0.69;100.00;101777.28;4890691;28;22464;-80
2021/12/22 05:41:33;;;;;;;42.78;13.48;;;1.10;99.90;;;-0.68;100.00;101778.13;4890017;28;20038;-80
2021/12/22 05:44:04;;;;;;;45.25;14.38;;;1.10;99.90;;;-0.68;100.00;101779.00;4921868;28;20978;-81
2021/12/22 05:46:32;;;;;;;37.22;12.20;;;1.10;99.90;;;-0.68;100.00;101775.53;4941383;23;20045;-80
2021/12/22 05:48:58;;;;;;;44.25;13.82;;;1.00;99.90;;;-0.68;100.00;101778.13;4977091;28;20029;-79
2021/12/22 05:51:27;;;;;;;41.75;12.25;;;1.10;99.90;;;-0.67;100.00;101769.50;4945835;28;20056;-80
2021/12/22 05:53:59;;;;;;;39.35;11.85;;;;;;;-0.73;100.00;101769.44;4942532;28;20033;-80
2021/12/22 05:56:30;;;;;;;39.90;13.23;;;1.00;99.90;;;-0.74;100.00;101765.09;4954033;28;20041;-80
2021/12/22 05:59:06;;;;;;;42.95;13.68;;;1.00;99.90;;;-0.78;100.00;101768.47;4931343;28;20654;-81
2021/12/22 06:01:32;;;;;;;49.20;14.63;;;1.00;99.90;;;-0.80;100.00;101775.31;4957197;28;20071;-80
2021/12/22 06:04:00;;;;;;;42.42;12.95;;;0.90;99.90;;;-0.79;100.00;101779.69;4942281;28;20112;-80
2021/12/22 06:06:26;;;;;;;46.60;13.75;;;1.00;99.90;;;-0.87;100.00;101764.88;4962558;28;20425;-80
2021/12/22 06:09:01;;;;;;;40.60;13.35;;;0.90;99.90;;;-0.89;100.00;101763.13;4956950;28;20057;-79
2021/12/22 06:11:27;;;;;;;41.60;12.95;;;0.90;99.90;;;-0.92;100.00;101770.84;4943388;28;20037;-80
2021/12/22 06:13:52;;;;;;;36.28;12.90;;;0.90;99.90;;;-0.96;100.00;101766.44;4965208;28;20036;-80
2021/12/22 06:16:18;;;;;;;43.45;13.57;;;0.90;99.90;;;-1.01;100.00;101766.38;4945123;28;20703;-80
2021/12/22 06:18:58;;;;;;;31.95;12.30;;;0.80;99.90;;;-1.00;100.00;101768.09;4989117;28;20029;-80
2021/12/22 06:21:32;;;;;;;36.15;13.10;;;0.80;99.90;;;-1.06;100.00;101763.72;4967473;28;20124;-80
2021/12/22 06:23:58;;;;;;;45.50;14.88;;;0.70;99.90;;;-1.08;100.00;101773.16;4949649;28;20073;-79
2021/12/22 06:26:24;;;;;;;37.10;13.70;;;0.70;99.90;;;-1.08;100.00;101762.81;4914488;28;20030;-80
2021/12/22 06:28:50;;;;;;;40.28;12.98;;;0.70;99.90;;;-1.06;100.00;101766.28;4936755;28;21506;-80
2021/12/22 06:31:24;;;;;;;44.45;13.40;;;0.70;99.90;;;-1.02;100.00;101769.78;4963902;28;20056;-81
2021/12/22 06:33:50;;;;;;;40.85;13.27;;;0.70;99.90;;;-1.00;100.00;101775.00;4926610;28;20035;-80
2021/12/22 06:36:17;;;;;;;44.28;14.23;;;0.70;99.90;;;-1.04;100.00;101774.06;4910710;28;20115;-80
2021/12/22 06:38:43;;;;;;;43.22;14.82;;;0.80;99.90;;;-1.04;100.00;101774.94;4960381;28;20037;-80
2021/12/22 06:41:17;;;;;;;48.75;14.98;;;0.70;99.90;;;-1.04;100.00;101769.78;4937831;28;20083;-80
2021/12/22 06:43:42;;;;;;;46.47;15.88;;;0.70;99.90;;;-1.05;100.00;101769.75;4948376;28;20052;-79
2021/12/22 06:46:09;;;;;;;47.70;16.15;;;0.70;99.90;;;-1.02;100.00;101776.69;4937790;28;20033;-79
2021/12/22 06:48:35;;;;;;;49.80;16.70;;;0.70;99.90;;;-1.08;100.00;101770.56;4933307;28;20430;-79
2021/12/22 06:51:06;;;;;;;50.35;16.52;;;0.70;99.90;;;-1.03;100.00;101765.47;4952030;28;20025;-79
2021/12/22 06:53:36;;;;;;;54.08;16.38;;;0.70;99.90;;;-1.05;100.00;101770.59;4946919;28;20076;-79
2021/12/22 06:56:06;;;;;;;45.00;15.95;;;0.70;99.90;;;-1.08;100.00;101773.16;4930611;28;20421;-79
2021/12/22 06:58:35;;;;;;;45.80;16.35;;;0.80;99.90;;;-1.11;100.00;101780.84;4957599;28;20047;-79
2021/12/22 07:01:01;;;;;;;46.92;15.90;;;0.70;99.90;;;-1.13;100.00;101772.19;4937062;28;20032;-80
2021/12/22 07:03:27;;;;;;;50.80;16.25;;;0.70;99.90;;;-1.10;100.00;101780.00;4957568;28;20021;-79
2021/12/22 07:05:54;;;;;;;52.10;16.75;;;0.70;99.90;;;-1.09;100.00;101778.28;4948832;28;20550;-79
2021/12/22 07:08:28;;;;;;;58.42;17.10;;;0.70;99.90;;;-1.07;100.00;101785.22;4966283;28;20036;-79
2021/12/22 07:10:54;;;;;;;62.25;17.92;;;0.70;99.90;;;-1.04;100.00;101802.50;4949908;28;20520;-79
2021/12/22 07:13:20;;;;;;;61.47;17.77;;;0.70;99.90;;;-1.00;100.00;101787.91;4967619;28;20035;-80
2021/12/22 07:15:47;;;;;;;63.47;18.35;;;0.70;99.90;;;-0.98;100.00;101781.06;4901749;28;20034;-79
2021/12/22 07:18:18;;;;;;;59.92;17.48;;;0.80;99.90;;;-0.93;100.00;101792.34;4947027;28;20117;-79
2021/12/22 07:20:43;;;;;;;56.97;17.70;;;0.80;99.90;;;-0.91;100.00;101788.06;4955954;28;20112;-79
2021/12/22 07:23:10;;;;;;;63.28;17.90;;;0.80;99.90;;;-0.94;100.00;101794.06;4954493;28;20544;-79
2021/12/22 07:25:36;;;;;;;58.13;18.48;;;0.80;99.90;;;-0.95;100.00;101784.59;4976556;28;20052;-79
2021/12/22 07:28:02;;;;;;;58.00;18.13;;;0.80;99.90;;;-0.86;100.00;101801.97;4983433;28;20037;-79
2021/12/22 07:30:35;;;;;;;62.50;17.60;;;0.90;99.90;;;-0.86;100.00;101792.50;4939856;28;20033;-78
2021/12/22 07:33:01;;;;;;;66.43;17.73;;;0.90;99.90;;;-0.84;100.00;101792.53;4970698;28;20662;-80
2021/12/22 07:36:01;;;;;;;63.25;17.25;;;0.90;99.90;;;-0.89;100.00;101799.31;4940168;28;20073;-79
2021/12/22 07:38:47;;;;;;;51.00;15.20;;;0.90;99.90;;;-0.89;100.00;101787.25;4930514;28;20430;-80
2021/12/22 07:41:16;;;;;;;52.65;15.23;;;0.90;99.90;;;-0.85;100.00;101795.94;4905730;28;20033;-80
2021/12/22 07:43:42;;;;;;;51.17;15.30;;;0.90;99.90;;;-0.90;100.00;101788.09;4953906;28;20034;-80
2021/12/22 07:46:08;;;;;;;46.20;15.13;;;0.90;99.90;;;-0.86;100.00;101781.28;4961040;28;20537;-79
2021/12/22 07:48:36;;;;;;;44.33;14.60;;;0.90;99.90;;;-0.84;100.00;101787.34;4955024;28;20132;-80
2021/12/22 07:51:05;;;;;;;56.97;14.93;;;0.90;99.90;;;-0.86;100.00;101789.03;4941138;28;20076;-79
2021/12/22 07:53:31;;;;;;;52.20;14.77;;;0.90;99.90;;;-0.85;100.00;101788.19;4985449;28;20033;-79
2021/12/22 07:55:57;;;;;;;50.20;15.25;;;0.90;99.90;;;-0.82;100.00;101793.44;4928586;28;20033;-80
2021/12/22 07:58:26;;;;;;;51.30;15.95;;;0.90;99.90;;;-0.77;100.00;101790.91;4944434;28;20076;-79
2021/12/22 08:01:00;;;;;;;48.50;14.63;;;0.90;99.90;;;-0.75;100.00;101791.81;4933564;28;20431;-79
2021/12/22 08:03:26;;;;;;;55.63;16.23;;;1.00;99.90;;;-0.75;100.00;101786.66;4952586;28;20038;-79
2021/12/22 08:05:53;;;;;;;69.00;17.92;;;0.90;99.90;;;-0.75;100.00;101790.09;4949996;28;20028;-79
2021/12/22 08:08:20;;;;;;;62.50;16.67;;;1.00;99.90;;;-0.76;100.00;101782.31;4941659;28;20045;-78
2021/12/22 08:10:49;;;;;;;57.00;16.70;;;1.00;99.90;;;-0.71;100.00;101786.72;4947288;28;20057;-79
2021/12/22 08:13:16;;;;;;;60.47;16.98;;;1.00;99.90;;;-0.72;100.00;101784.97;4935092;28;20172;-78
2021/12/22 08:15:44;;;;;;;59.33;16.65;;;1.00;99.90;;;-0.81;100.00;101797.75;4917904;28;20037;-78
2021/12/22 08:18:11;;;;;;;48.28;14.93;;;0.90;99.90;;;-0.89;100.00;101783.81;4954738;28;20469;-79
2021/12/22 08:20:46;;;;;;;46.15;14.63;;;1.00;99.90;;;-0.88;100.00;101772.63;4920446;28;20037;-78
2021/12/22 08:23:12;;;;;;;45.88;14.65;;;0.90;99.90;;;-0.89;100.00;101781.22;4967484;28;20025;-78
2021/12/22 08:25:39;;;;;;;57.90;15.82;;;0.90;99.90;;;-0.88;100.00;101773.50;4931760;28;20033;-78
2021/12/22 08:28:06;;;;;;;47.03;13.82;;;0.90;99.90;;;-0.88;100.00;101777.81;4945260;28;20045;-79
2021/12/22 08:30:34;;;;;;;37.65;12.63;;;0.90;99.90;;;-0.88;100.00;101783.84;4946150;28;20033;-79
2021/12/22 08:33:04;;;;;;;49.45;14.45;;;0.80;99.90;;;-0.86;100.00;101781.28;4987227;28;20025;-79
2021/12/22 08:38:50;;;;;;;43.28;14.00;;;0.90;99.90;;;-0.89;100.00;101765.69;4954460;28;20058;-79
2021/12/22 08:41:02;;;;;;;34.80;12.30;;;0.90;99.90;;;-0.92;100.00;101771.69;4934621;28;20046;-79
2021/12/22 08:43:28;;;;;;;44.08;13.20;;;0.90;99.90;;;-0.92;100.00;101776.88;4930328;28;20115;-79
2021/12/22 08:45:55;;;;;;;37.65;13.10;;;0.90;99.90;;;-0.95;100.00;101763.91;4951421;28;20508;-79
2021/12/22 08:48:20;;;;;;;38.20;12.43;;;0.90;99.90;;;-0.92;100.00;101758.78;4983259;28;20048;-80
2021/12/22 08:50:46;;;;;;;38.42;12.90;;;0.90;99.90;;;-0.95;100.00;101771.66;4922951;28;20029;-79
2021/12/22 08:53:12;;;;;;;39.13;13.32;;;0.80;99.90;;;-0.94;100.00;101777.69;5008068;28;20029;-79
2021/12/22 08:55:46;;;;;;;40.30;11.95;;;0.80;99.90;;;-0.90;100.00;101782.06;4973437;28;20083;-79
2021/12/22 08:58:12;;;;;;;39.45;13.10;;;0.80;99.90;;;-0.90;100.00;101775.19;4952195;28;20042;-79
2021/12/22 09:00:38;;;;;;;36.20;11.93;;;0.90;99.90;;;-0.84;100.00;101779.59;4928453;28;20026;-80
2021/12/22 09:03:04;;;;;;;41.08;12.00;;;0.80;99.90;;;-0.88;100.00;101788.16;4938731;28;20124;-79
2021/12/22 09:05:38;;;;;;;36.08;11.95;;;0.90;99.90;;;-0.85;100.00;101780.44;4909561;28;20025;-79
2021/12/22 09:08:07;;;;;;;28.92;10.82;;;0.90;99.90;;;-0.83;100.00;101778.75;4919447;28;20029;-79
2021/12/22 09:10:38;;;;;;;45.53;17.63;;;0.90;99.90;;;-0.80;100.00;101783.09;4927409;28;20022;-79
2021/12/22 09:13:04;;;;;;;52.13;19.05;;;0.90;99.90;;;-0.79;100.00;101779.69;4969283;28;20029;-79
2021/12/22 09:15:31;;;;;;;36.42;14.82;;;0.90;99.90;;;-0.78;100.00;101774.50;4988733;22;20042;-79
2021/12/22 09:17:57;;;;;;;37.83;14.52;;;0.90;99.90;;;-0.79;100.00;101769.34;4955533;28;20532;-80
2021/12/22 09:20:30;;;;;;;46.08;18.55;;;0.90;99.90;;;-0.72;100.00;101773.75;4937768;28;20659;-79
2021/12/22 09:22:56;;;;;;;41.58;16.02;;;1.00;99.90;;;-0.77;100.00;101770.22;4981323;28;20053;-78
2021/12/22 09:25:23;;;;;;;43.38;15.60;;;1.00;99.90;;;-0.72;100.00;101774.63;4904750;28;20147;-79
2021/12/22 09:27:49;;;;;;;38.38;12.05;;;1.00;99.90;;;-0.66;100.00;101777.31;4933460;28;20690;-79
2021/12/22 09:30:15;;;;;;;47.03;15.07;;;1.00;99.90;;;-0.64;100.00;101774.75;4959543;28;20033;-79
2021/12/22 09:32:46;;;;;;;42.03;13.93;;;1.00;99.90;;;-0.64;100.00;101780.78;4922997;28;22184;-79
2021/12/22 09:35:18;;;;;;;46.92;15.63;;;1.00;99.90;;;-0.65;100.00;101784.22;4905458;28;20108;-79
2021/12/22 09:37:44;;;;;;;50.05;15.93;;;1.00;99.90;;;-0.71;100.00;101784.13;4939382;28;20029;-79
2021/12/22 09:40:16;;;;;;;55.75;20.40;;;1.00;99.90;;;-0.67;100.00;101782.44;4937369;28;20068;-79
2021/12/22 09:42:43;;;;;;;63.63;21.05;;;1.00;99.90;;;-0.71;100.00;101778.97;4913381;28;20029;-78
2021/12/22 09:45:09;;;;;;;43.00;15.90;;;1.00;99.90;;;-0.77;100.00;101784.03;4922094;28;20053;-78
2021/12/22 09:47:50;;;;;;;45.72;15.82;;;1.00;99.90;;;-0.80;100.00;101781.38;4948451;28;20083;-82
2021/12/22 09:50:34;;;;;;;47.58;16.20;;;1.00;99.90;;;-0.80;100.00;101783.09;4938510;28;20498;-79
2021/12/22 09:53:12;;;;;;;52.22;16.02;;;1.00;99.90;;;-0.79;100.00;101775.38;4964497;28;20037;-81
2021/12/22 09:55:48;;;;;;;50.95;16.25;;;1.60;99.90;;;-0.84;100.00;101771.84;4935217;28;20094;-82
2021/12/22 09:58:16;;;;;;;41.67;15.05;;;0.90;99.90;;;-0.81;100.00;101779.63;4883650;28;20542;-81
2021/12/22 10:00:51;;;;;;;53.13;16.70;;;0.90;99.90;;;-0.76;100.00;101774.53;4916136;28;20033;-80
2021/12/22 10:03:20;;;;;;;39.05;13.68;;;0.90;99.90;;;-0.77;100.00;101780.56;4937698;28;20422;-79
2021/12/22 10:05:54;;;;;;;48.72;15.15;;;1.00;99.90;;;-0.68;100.00;101778.13;4948743;28;20022;-81
2021/12/22 10:08:23;;;;;;;46.50;14.85;;;1.00;99.90;;;-0.61;100.00;101777.38;4930578;28;20529;-81
2021/12/22 10:10:55;;;;;;;43.53;14.02;;;1.00;99.90;;;-0.56;100.00;101777.44;4917001;28;20041;-81
2021/12/22 10:13:26;;;;;;;40.67;14.02;;;1.10;99.90;;;-0.52;100.00;101780.13;4937041;28;20109;-78
2021/12/22 10:16:02;;;;;;;46.15;15.75;;;;;;;-0.53;100.00;101780.09;4930637;28;20061;-80
2021/12/22 10:18:29;;;;;;;;;;;1.10;99.90;;;-0.57;100.00;101779.16;4954278;28;20120;-82
2021/12/22 10:21:21;;;;;;;43.58;15.15;;;1.20;99.90;;;-0.53;100.00;101785.28;4949977;28;19912;-79
2021/12/22 10:23:51;;;;;;;43.72;14.93;;;1.10;99.90;;;-0.61;100.00;101777.38;4962924;28;20040;-81
2021/12/22 10:26:28;;;;;;;38.67;14.70;;;1.10;99.90;;;-0.60;100.00;101775.66;4916999;28;20040;-83
2021/12/22 10:29:38;;;;;;;44.00;15.23;;;1.20;99.90;;;-0.62;100.00;101778.25;4980808;28;20057;-83
2021/12/22 10:32:22;;;;;;;38.95;14.82;;;1.10;99.90;;;-0.55;100.00;101763.69;4960229;28;20048;-83
2021/12/22 10:34:59;;;;;;;40.42;14.00;;;1.20;99.90;;;-0.53;100.00;101764.56;4915102;28;20113;-84
2021/12/22 10:37:39;;;;;;;45.22;16.55;;;1.20;99.90;;;-0.50;100.00;101765.47;4963687;28;20267;-81
2021/12/22 10:40:36;;;;;;;38.90;15.13;;;1.20;99.90;;;-0.42;100.00;101769.06;4947393;28;20065;-82